Time;durP1;ratioP1;P1;durP2;ratioP2;P2;SDS_P1;SDS_P2;PMS_P1;PMS_P2;Temp;Humidity;BMP_temperature;BMP_pressure;BME280_temperature;BME280_humidity;BME280_pressure;Samples;Min_cycle;Max_cycle;Signal;HPM_P1;HPM_P2
2022/08/25 04:22:37;;;;;;;3.33;2.40;;;;;;;20.31;72.62;100221.56;5088920;28;20362;-64
2022/08/25 04:25:05;;;;;;;2.67;1.98;;;;;;;20.16;73.31;100219.34;5089018;28;20032;-66
2022/08/25 04:27:31;;;;;;;;;;;;;;;19.98;74.27;100217.59;5089322;28;20500;-65
2022/08/25 04:29:56;;;;;;;3.15;2.05;;;;;;;19.97;74.42;100218.66;5088606;28;19916;-65
2022/08/25 04:32:22;;;;;;;3.25;2.35;;;;;;;19.99;74.04;100224.63;5087734;28;20065;-66
2022/08/25 04:34:48;;;;;;;3.65;2.28;;;;;;;19.88;75.27;100227.34;5089413;28;20044;-63
2022/08/25 04:37:13;;;;;;;3.22;2.30;;;;;;;19.86;74.88;100230.28;5088714;28;20033;-58
2022/08/25 04:39:39;;;;;;;3.75;2.35;;;;;;;19.90;74.40;100228.75;5088446;28;20098;-63
2022/08/25 04:42:04;;;;;;;3.03;2.08;;;;;;;19.80;75.20;100242.03;5088556;28;20044;-63
2022/08/25 04:44:30;;;;;;;3.00;2.08;;;;;;;19.62;75.91;100229.41;5088714;28;20047;-61
2022/08/25 04:46:56;;;;;;;3.90;2.47;;;;;;;19.55;76.51;100228.69;5088598;28;20033;-61
2022/08/25 04:49:22;;;;;;;3.60;2.22;;;;;;;19.43;77.07;100220.56;5088276;28;20036;-60
2022/08/25 04:51:47;;;;;;;3.03;2.17;;;;;;;19.47;76.88;100218.22;5088536;28;20500;-62
2022/08/25 04:54:21;;;;;;;2.80;2.22;;;;;;;19.44;77.20;100216.81;5088445;28;20508;-63
2022/08/25 04:56:50;;;;;;;3.55;2.25;;;;;;;19.40;77.23;100215.63;5088356;28;20036;-62
2022/08/25 04:59:17;;;;;;;3.35;2.38;;;;;;;19.52;76.79;100213.78;5088111;28;20146;-63
2022/08/25 05:01:45;;;;;;;4.53;2.20;;;;;;;19.55;76.40;100214.34;5088432;28;20182;-63
2022/08/25 05:04:13;;;;;;;6.03;2.63;;;;;;;19.52;76.75;100226.47;5088200;28;20044;-63
2022/08/25 05:06:39;;;;;;;;;;;;;;;19.51;76.58;100222.94;5088584;28;20040;-63
2022/08/25 05:09:06;;;;;;;3.70;2.22;;;;;;;19.48;76.84;100217.97;5087893;28;19935;-60
2022/08/25 05:11:32;;;;;;;5.43;2.15;;;;;;;19.53;76.53;100222.69;5088136;28;20035;-61
2022/08/25 05:13:59;;;;;;;5.55;3.03;;;;;;;19.48;76.99;100217.16;5088099;28;20040;-60
2022/08/25 05:16:25;;;;;;;4.15;2.50;;;;;;;19.50;76.76;100215.88;5087946;28;20032;-60
2022/08/25 05:18:52;;;;;;;3.80;2.38;;;;;;;19.55;76.63;100217.06;5087974;28;20196;-64
2022/08/25 05:21:21;;;;;;;3.78;2.00;;;;;;;19.56;76.78;100210.59;5087597;28;20047;-63
2022/08/25 05:23:47;;;;;;;5.03;2.50;;;;;;;19.61;76.42;100221.56;5087864;28;20102;-60
2022/08/25 05:26:16;;;;;;;5.97;2.40;;;;;;;19.66;76.39;100221.69;5087643;28;20495;-63
2022/08/25 05:28:42;;;;;;;4.25;2.53;;;;;;;19.71;75.88;100224.53;5087767;28;20044;-60
2022/08/25 05:31:10;;;;;;;3.30;2.47;;;;;;;19.68;76.19;100227.66;5087566;28;20086;-63
2022/08/25 05:33:37;;;;;;;4.05;2.58;;;;;;;19.70;76.09;100228.28;5076357;28;20086;-58
2022/08/25 05:36:03;;;;;;;4.25;2.40;;;;;;;19.75;75.81;100222.97;5073990;28;20028;-59
2022/08/25 05:38:29;;;;;;;3.85;2.22;;;;;;;19.75;76.04;100217.56;5074219;28;20043;-63
2022/08/25 05:41:02;;;;;;;5.22;2.40;;;;;;;19.81;75.96;100226.63;5073705;28;20036;-63
2022/08/25 05:43:28;;;;;;;4.05;2.28;;;;;;;19.82;75.51;100214.75;5070993;28;20090;-63
2022/08/25 05:45:54;;;;;;;4.07;2.33;;;;;;;19.85;75.69;100219.72;5053869;28;20037;-63
2022/08/25 05:48:20;;;;;;;5.07;2.83;;;;;;;19.85;75.64;100219.72;5053877;28;20498;-62
2022/08/25 05:51:09;;;;;;;4.30;2.83;;;;;;;19.91;75.08;100213.38;5053631;28;20021;-63
2022/08/25 05:53:35;;;;;;;4.72;2.83;;;;;;;19.96;75.09;100213.50;5053972;28;20110;-62
2022/08/25 05:56:01;;;;;;;4.60;2.70;;;;;;;19.98;75.17;100206.78;5053783;28;20466;-60
2022/08/25 05:58:28;;;;;;;6.68;2.70;;;;;;;20.03;74.67;100209.59;5053834;28;20031;-60
2022/08/25 06:00:55;;;;;;;3.35;2.55;;;;;;;20.09;74.81;100205.13;5053519;28;20061;-63
2022/08/25 06:03:20;;;;;;;6.67;2.97;;;;;;;20.10;74.82;100205.97;5053743;28;20029;-61
2022/08/25 06:05:46;;;;;;;4.40;2.63;;;;;;;20.16;74.23;100199.59;5035770;28;20378;-62
2022/08/25 06:08:12;;;;;;;2.88;2.15;;;;;;;20.24;74.50;100207.34;5053749;28;20045;-63
2022/08/25 06:10:37;;;;;;;4.72;2.90;;;;;;;20.30;73.97;100203.69;5053456;28;20108;-63
2022/08/25 06:13:03;;;;;;;4.50;2.65;;;;;;;20.36;74.35;100200.03;5053600;28;20116;-59
2022/08/25 06:15:30;;;;;;;4.78;2.80;;;;;;;20.43;73.98;100192.59;5053214;28;20036;-60
2022/08/25 06:17:57;;;;;;;3.75;2.42;;;;;;;20.47;73.54;100196.50;5053422;28;20631;-56
2022/08/25 06:20:26;;;;;;;3.50;2.28;;;;;;;20.54;73.24;100199.09;5052813;28;20041;-58
2022/08/25 06:22:53;;;;;;;4.07;2.55;;;;;;;20.64;73.38;100196.56;5053403;28;20052;-61
2022/08/25 06:25:22;;;;;;;4.00;2.92;;;;;;;20.69;73.05;100188.56;5053098;28;20044;-60
2022/08/25 06:27:47;;;;;;;6.22;2.65;;;;;;;20.78;72.89;100189.81;5053294;28;20037;-62
2022/08/25 06:30:16;;;;;;;3.85;2.22;;;;;;;20.91;72.34;100187.88;5052990;28;20058;-61
2022/08/25 06:32:43;;;;;;;3.42;2.40;;;;;;;20.97;72.12;100185.03;5053127;28;20052;-57
2022/08/25 06:35:11;;;;;;;4.28;2.50;;;;;;;21.05;72.04;100179.19;5053118;28;20094;-59
2022/08/25 06:37:37;;;;;;;3.53;2.47;;;;;;;21.14;72.15;100187.78;5053069;28;20128;-59
2022/08/25 06:40:05;;;;;;;3.85;2.53;;;;;;;21.22;71.48;100175.72;5052810;28;20124;-61
2022/08/25 06:42:31;;;;;;;4.75;2.63;;;;;;;21.40;71.31;100175.50;5062628;28;20040;-60
2022/08/25 06:44:56;;;;;;;5.70;2.33;;;;;;;21.51;70.76;100171.06;5071803;28;20393;-59
2022/08/25 06:47:22;;;;;;;4.70;2.55;;;;;;;21.57;70.92;100176.31;5072391;28;20028;-59
2022/08/25 06:49:47;;;;;;;5.78;2.80;;;;;;;21.70;70.25;100169.72;5071681;28;20044;-61
2022/08/25 06:52:14;;;;;;;3.50;2.40;;;;;;;21.77;69.56;100162.25;5072386;28;20473;-61
2022/08/25 06:54:40;;;;;;;4.25;2.67;;;;;;;21.84;69.22;100171.06;5072580;28;20050;-60
2022/08/25 06:57:06;;;;;;;4.68;2.85;;;;;;;21.91;69.01;100168.16;5072347;28;20119;-61
2022/08/25 06:59:33;;;;;;;5.05;2.88;;;;;;;21.99;68.51;100169.63;5071435;28;20361;-60
2022/08/25 07:01:59;;;;;;;6.07;2.67;;;;;;;22.06;68.21;100162.94;5072068;28;20048;-58
2022/08/25 07:04:25;;;;;;;5.83;2.80;;;;;;;22.11;67.91;100173.06;5072361;28;20463;-57
2022/08/25 07:06:50;;;;;;;4.35;2.70;;;;;;;22.15;67.88;100171.47;5070653;28;20044;-58
2022/08/25 07:09:16;;;;;;;5.68;2.33;;;;;;;22.21;67.99;100170.47;5071679;28;20040;-59
2022/08/25 07:11:43;;;;;;;2.63;1.95;;;;;;;22.27;67.56;100174.09;5072249;28;20135;-57
2022/08/25 07:14:11;;;;;;;5.10;2.88;;;;;;;22.31;67.58;100173.34;5072256;28;20032;-59
2022/08/25 07:16:37;;;;;;;4.55;3.13;;;;;;;22.39;67.13;100167.47;5071696;28;20064;-58
2022/08/25 07:19:04;;;;;;;3.63;2.63;;;;;;;22.52;67.18;100168.16;5071797;28;20911;-60
2022/08/25 07:21:32;;;;;;;4.90;2.70;;;;;;;22.59;66.53;100163.34;5071843;28;20501;-57
2022/08/25 07:23:59;;;;;;;3.17;2.40;;;;;;;22.65;66.71;100165.88;5071943;28;20085;-54
2022/08/25 07:26:28;;;;;;;4.17;2.77;;;;;;;22.76;66.33;100166.81;5071641;28;20379;-58
2022/08/25 07:28:55;;;;;;;4.38;2.90;;;;;;;22.86;65.98;100168.78;5070320;28;20290;-56
2022/08/25 07:31:20;;;;;;;4.83;3.20;;;;;;;22.89;66.13;100160.19;5070279;28;20127;-59
2022/08/25 07:36:30;;;;;;;5.95;2.67;;;;;;;23.12;65.15;100162.56;5070030;28;20048;-57
2022/08/25 07:38:57;;;;;;;4.30;2.92;;;;;;;23.24;64.61;100165.94;5071538;28;20501;-60
2022/08/25 07:41:25;;;;;;;6.38;3.33;;;;;;;23.43;64.47;100170.97;5071360;28;20060;-58
2022/08/25 07:43:51;;;;;;;4.43;2.65;;;;;;;23.48;63.60;100165.59;5071681;28;20123;-65
2022/08/25 07:46:17;;;;;;;3.92;2.30;;;;;;;23.52;63.48;100164.78;5071726;28;20036;-65
2022/08/25 07:48:42;;;;;;;5.30;3.17;;;;;;;23.64;63.13;100167.34;5071643;28;20041;-66
2022/08/25 07:51:10;;;;;;;3.88;2.47;;;;;;;23.71;63.12;100164.41;5071509;28;20036;-65
2022/08/25 07:53:37;;;;;;;3.72;2.60;;;;;;;23.84;62.49;100166.69;5071767;28;20040;-65
2022/08/25 07:56:12;;;;;;;4.55;2.97;;;;;;;23.93;61.63;100158.81;5071254;28;20039;-65
2022/08/25 07:58:38;;;;;;;4.07;2.67;;;;;;;24.02;61.64;100160.81;5071623;28;20040;-66
2022/08/25 08:01:04;;;;;;;3.40;2.38;;;;;;;24.12;60.85;100161.94;5071377;28;20047;-64
2022/08/25 08:03:30;;;;;;;4.53;2.80;;;;;;;24.22;60.58;100160.09;5071792;28;20528;-63
2022/08/25 08:05:56;;;;;;;3.67;2.40;;;;;;;24.31;59.90;100161.19;5071473;28;20044;-64
2022/08/25 08:08:22;;;;;;;3.55;2.50;;;;;;;24.43;59.80;100155.56;5071610;28;20481;-63
2022/08/25 08:10:48;;;;;;;2.88;2.40;;;;;;;24.50;59.28;100163.47;5070969;28;20047;-64
2022/08/25 08:13:13;;;;;;;4.65;2.70;;;;;;;24.58;59.24;100165.69;5071481;28;20033;-64
2022/08/25 08:15:42;;;;;;;3.78;3.05;;;;;;;24.67;59.20;100163.28;5071372;28;20444;-65
2022/08/25 08:18:08;;;;;;;4.32;2.55;;;;;;;24.70;58.29;100163.53;5071396;28;20048;-65
2022/08/25 08:20:33;;;;;;;5.45;2.58;;;;;;;24.77;57.96;100166.00;5071016;28;20032;-65
2022/08/25 08:22:59;;;;;;;4.32;2.60;;;;;;;24.88;57.76;100171.22;5071252;28;20524;-64
2022/08/25 08:25:25;;;;;;;4.25;2.85;;;;;;;24.98;57.63;100162.25;5071141;28;20032;-64
2022/08/25 08:27:50;;;;;;;3.58;2.17;;;;;;;25.05;57.61;100167.47;5071371;28;20044;-65
2022/08/25 08:30:16;;;;;;;3.65;2.35;;;;;;;25.20;57.07;100169.38;5071022;28;20043;-65
2022/08/25 08:32:42;;;;;;;4.00;2.55;;;;;;;25.31;55.93;100165.56;5071248;28;20063;-65
2022/08/25 08:35:07;;;;;;;4.35;2.70;;;;;;;25.42;55.72;100157.09;5071255;28;20041;-66
2022/08/25 08:37:33;;;;;;;3.15;2.45;;;;;;;25.54;54.98;100158.75;5071702;28;20044;-65
2022/08/25 08:40:00;;;;;;;4.18;2.38;;;;;;;25.60;54.54;100161.19;5070994;28;20040;-65
2022/08/25 08:42:45;;;;;;;3.90;2.73;;;;;;;25.64;54.36;100162.28;5071114;28;20040;-65
2022/08/25 08:45:20;;;;;;;5.60;2.63;;;;;;;25.80;54.42;100160.38;5071163;28;20274;-65
2022/08/25 08:47:51;;;;;;;3.20;2.45;;;;;;;25.89;53.51;100157.91;5069813;28;20044;-64
2022/08/25 08:50:48;;;;;;;3.78;2.50;;;;;;;25.96;53.09;100151.06;5070671;28;20514;-65
2022/08/25 08:53:51;;;;;;;3.00;2.20;;;;;;;26.06;52.38;100152.94;5071105;28;20111;-64
2022/08/25 08:56:24;;;;;;;3.85;2.85;;;;;;;26.29;51.82;100156.13;5070991;28;20031;-64
2022/08/25 08:58:56;;;;;;;2.50;2.10;;;;;;;26.34;51.87;100146.00;5070956;28;20045;-64
2022/08/25 09:01:33;;;;;;;3.53;2.20;;;;;;;26.49;50.80;100136.97;5069458;28;20043;-65
2022/08/25 09:04:09;;;;;;;4.28;2.20;;;;;;;26.64;51.04;100146.97;5071014;28;20385;-65
2022/08/25 09:06:43;;;;;;;3.42;2.45;;;;;;;26.80;50.28;100143.06;5069533;28;20139;-65
2022/08/25 09:09:13;;;;;;;4.60;2.78;;;;;;;26.79;50.22;100139.50;5073888;28;20119;-65
2022/08/25 09:11:41;;;;;;;3.10;2.30;;;;;;;26.99;49.74;100138.53;5074723;28;20097;-65
2022/08/25 09:14:18;;;;;;;4.78;2.20;;;;;;;27.20;48.96;100143.91;5074523;28;20040;-64
2022/08/25 09:16:55;;;;;;;4.00;2.60;;;;;;;27.25;48.29;100135.63;5074391;28;20033;-65
2022/08/25 09:19:30;;;;;;;3.67;2.28;;;;;;;27.33;47.23;100132.31;5074345;28;20304;-64
2022/08/25 09:22:20;;;;;;;4.97;2.45;;;;;;;27.50;46.95;100132.66;5073051;28;20433;-65
2022/08/25 09:25:09;;;;;;;3.63;2.60;;;;;;;27.77;46.57;100134.88;5042881;28;20390;-65
2022/08/25 09:27:44;;;;;;;3.30;2.38;;;;;;;27.85;46.37;100120.59;5074384;28;20036;-66
2022/08/25 09:30:16;;;;;;;3.15;2.20;;;;;;;28.02;45.18;100116.56;5073953;28;20036;-65
2022/08/25 09:32:45;;;;;;;3.22;2.38;;;;;;;28.20;44.68;100126.75;5074304;28;20035;-65
2022/08/25 09:35:19;;;;;;;5.05;2.25;;;;;;;28.37;43.77;100118.91;5074028;28;20438;-65
2022/08/25 09:38:02;;;;;;;4.03;2.60;;;;;;;28.63;43.16;100115.81;5074377;28;20421;-65
2022/08/25 09:40:30;;;;;;;2.95;2.28;;;;;;;28.82;42.79;100107.53;5073688;28;20516;-65
2022/08/25 09:42:59;;;;;;;2.67;1.80;;;;;;;29.13;41.38;100111.47;5074189;28;20109;-65
2022/08/25 09:46:12;;;;;;;2.90;2.13;;;;;;;29.29;41.49;100108.47;5074135;28;20436;-65
2022/08/25 09:48:54;;;;;;;3.35;2.60;;;;;;;29.41;40.94;100114.28;5073967;28;20215;-66
2022/08/25 09:51:32;;;;;;;3.03;2.17;;;;;;;29.73;40.12;100105.19;5073883;28;20071;-65
2022/08/25 09:54:20;;;;;;;5.03;2.08;;;;;;;29.87;39.95;100106.03;5072819;28;20090;-66
2022/08/25 09:56:53;;;;;;;3.17;2.28;;;;;;;30.21;39.18;100097.41;5073660;28;20036;-66
2022/08/25 09:59:18;;;;;;;2.72;2.22;;;;;;;30.62;38.44;100093.72;5073518;28;20036;-65
2022/08/25 10:01:52;;;;;;;3.15;2.08;;;;;;;30.73;37.58;100095.16;5073423;28;20051;-66
2022/08/25 10:04:46;;;;;;;2.72;2.00;;;;;;;31.15;36.68;100086.72;5073821;28;20048;-64
2022/08/25 10:07:34;;;;;;;2.38;2.00;;;;;;;31.20;36.37;100084.66;5064517;28;20052;-65
2022/08/25 10:10:06;;;;;;;2.33;1.70;;;;;;;31.23;36.18;100088.69;5073268;28;20045;-64
2022/08/25 10:12:49;;;;;;;2.80;1.90;;;;;;;31.63;35.67;100089.59;5073530;28;20036;-64
2022/08/25 10:15:19;;;;;;;2.83;1.73;;;;;;;31.55;35.65;100091.16;5073423;28;20036;-65
2022/08/25 10:17:44;;;;;;;2.72;2.20;;;;;;;32.06;34.40;100084.25;5073422;28;20078;-66
2022/08/25 10:20:10;;;;;;;2.53;2.20;;;;;;;32.25;35.15;100083.97;5072830;28;20454;-65
2022/08/25 10:22:40;;;;;;;3.13;2.28;;;;;;;32.70;34.49;100082.91;5071908;28;20067;-66
2022/08/25 10:25:09;;;;;;;2.95;2.15;;;;;;;32.86;33.32;100076.56;5073261;28;20354;-66
2022/08/25 10:28:11;;;;;;;3.40;1.90;;;;;;;32.70;33.66;100075.44;5073400;28;20429;-64
2022/08/25 10:31:11;;;;;;;4.53;2.17;;;;;;;33.04;32.63;100066.34;5072789;28;20032;-66
2022/08/25 10:33:54;;;;;;;3.60;2.13;;;;;;;33.05;32.54;100064.38;5073105;28;20485;-66
2022/08/25 10:36:30;;;;;;;2.72;1.77;;;;;;;33.52;32.36;100058.91;5069593;22;20505;-68
2022/08/25 10:39:00;;;;;;;4.03;2.17;;;;;;;33.42;32.14;100054.56;5032941;28;20042;-68
2022/08/25 10:41:48;;;;;;;2.38;1.77;;;;;;;33.58;31.35;100052.91;5033153;28;20383;-68
2022/08/25 10:47:21;;;;;;;2.40;2.00;;;;;;;34.10;31.47;100055.38;5033050;28;20057;-68
2022/08/25 10:49:50;;;;;;;3.55;1.90;;;;;;;34.33;31.23;100049.53;5032526;28;20110;-68
2022/08/25 10:53:00;;;;;;;5.97;2.15;;;;;;;34.37;30.39;100044.97;5033071;28;20033;-71
2022/08/25 10:56:02;;;;;;;2.75;2.45;;;;;;;34.74;30.38;100043.19;5032785;28;20125;-69
2022/08/25 10:58:47;;;;;;;2.72;1.85;;;;;;;34.90;30.31;100035.88;5032760;28;20025;-68
2022/08/25 11:01:31;;;;;;;3.03;2.10;;;;;;;34.87;29.66;100033.78;5032601;28;20155;-68
2022/08/25 11:10:51;;;;;;;2.80;2.20;;;;;;;35.19;29.50;100014.75;5068248;28;20395;-59
2022/08/25 11:16:19;;;;;;;2.72;1.92;;;;;;;34.95;29.25;100004.44;5089118;28;20340;-62
2022/08/25 11:18:58;;;;;;;3.25;2.05;;;;;;;35.37;29.24;100010.63;5089080;28;20115;-62
2022/08/25 11:21:32;;;;;;;2.47;2.20;;;;;;;35.38;28.81;100016.97;5088825;28;20035;-63
2022/08/25 11:24:18;;;;;;;3.22;2.03;;;;;;;35.85;28.02;100015.34;5089011;28;20074;-63
2022/08/25 11:26:48;;;;;;;;;;;;;;;36.07;27.48;100008.56;5089315;28;20079;-62
2022/08/25 11:29:17;;;;;;;1.70;1.60;;;;;;;36.39;27.34;100012.31;5088614;28;19985;-62
2022/08/25 11:31:52;;;;;;;2.60;1.92;;;;;;;36.38;27.33;100002.34;5088906;28;20072;-62
2022/08/25 11:34:18;;;;;;;2.92;2.03;;;;;;;36.12;27.91;100008.28;5088809;28;20060;-63
2022/08/25 11:36:56;;;;;;;2.67;2.05;;;;;;;36.60;27.35;99997.41;5088782;28;20111;-64
2022/08/25 11:39:41;;;;;;;3.65;1.95;;;;;;;36.67;26.88;99994.84;5088461;28;20028;-64
2022/08/25 11:42:45;;;;;;;2.90;2.07;;;;;;;36.45;27.38;99990.66;5089086;28;20029;-63
2022/08/25 11:45:29;;;;;;;2.25;1.73;;;;;;;37.11;26.28;99992.06;5088666;28;20113;-63
2022/08/25 11:48:05;;;;;;;2.17;1.70;;;;;;;37.34;26.30;99983.94;5088473;28;20028;-63
2022/08/25 11:50:52;;;;;;;2.75;2.17;;;;;;;37.17;26.04;99988.66;5088296;28;20065;-63
2022/08/25 11:53:23;;;;;;;2.63;2.20;;;;;;;35.85;27.24;99971.03;5088401;28;20046;-63
2022/08/25 11:55:53;;;;;;;2.10;1.88;;;;;;;37.09;26.04;99983.28;5088261;28;20040;-63
2022/08/25 11:58:37;;;;;;;2.53;1.85;;;;;;;36.73;26.72;99971.22;5088187;28;20061;-63
2022/08/25 12:01:07;;;;;;;2.42;1.70;;;;;;;36.40;26.29;99977.88;5088026;28;20054;-63
2022/08/25 12:03:33;;;;;;;2.47;1.88;;;;;;;36.64;26.94;99979.69;5088360;28;20429;-63
2022/08/25 12:06:26;;;;;;;2.20;1.80;;;;;;;37.03;26.21;99971.63;5088242;28;20104;-63
2022/08/25 12:09:00;;;;;;;2.10;1.80;;;;;;;37.81;25.76;99961.66;5087963;28;20497;-63
2022/08/25 12:11:41;;;;;;;1.90;1.50;;;;;;;38.30;24.24;99963.09;5088059;28;20043;-63
2022/08/25 12:14:37;;;;;;;2.15;1.52;;;;;;;37.84;24.41;99960.13;5087765;28;20028;-63
2022/08/25 12:17:17;;;;;;;3.08;1.90;;;;;;;37.31;25.13;99945.75;5088006;28;20046;-63
2022/08/25 12:19:42;;;;;;;2.53;1.75;;;;;;;37.59;24.90;99948.41;5087683;28;20081;-62
2022/08/25 12:22:07;;;;;;;2.40;1.80;;;;;;;37.56;24.15;99943.56;5088068;28;20525;-63
2022/08/25 12:24:42;;;;;;;2.50;1.67;;;;;;;37.77;24.54;99952.41;5087982;28;20036;-63
2022/08/25 12:27:32;;;;;;;2.20;1.58;;;;;;;38.24;24.68;99945.88;5076551;28;20028;-62
2022/08/25 12:30:14;;;;;;;2.30;1.65;;;;;;;38.22;24.18;99945.44;5064987;28;20051;-63
2022/08/25 12:32:51;;;;;;;2.50;1.50;;;;;;;38.08;23.57;99945.94;5074382;28;20033;-63
2022/08/25 12:35:37;;;;;;;1.67;1.40;;;;;;;37.93;24.20;99944.03;5074144;28;20071;-64
2022/08/25 12:38:17;;;;;;;;;;;;;;;37.50;24.10;99936.72;5074614;28;20110;-64
2022/08/25 12:40:43;;;;;;;1.98;1.67;;;;;;;36.57;24.97;99928.78;5073745;28;20019;-64
2022/08/25 12:43:12;;;;;;;2.10;1.77;;;;;;;37.51;23.93;99930.00;5074105;28;20098;-63
2022/08/25 12:45:44;;;;;;;1.90;1.58;;;;;;;37.17;25.02;99930.38;5073986;28;20032;-63
2022/08/25 12:48:25;;;;;;;1.90;1.50;;;;;;;36.74;24.72;99935.97;5074017;28;20052;-63
2022/08/25 12:51:18;;;;;;;2.55;1.67;;;;;;;37.80;24.20;99929.47;5073655;28;20047;-63
2022/08/25 12:53:52;;;;;;;2.22;1.67;;;;;;;38.05;23.50;99931.97;5073877;28;20501;-63
2022/08/25 12:56:32;;;;;;;2.58;2.03;;;;;;;38.04;23.64;99930.38;5073754;28;20051;-62
2022/08/25 12:59:01;;;;;;;3.08;1.80;;;;;;;38.26;22.97;99938.00;5073647;28;20047;-64
2022/08/25 13:01:48;;;;;;;2.20;1.73;;;;;;;36.82;24.69;99935.78;5073749;28;20397;-63
2022/08/25 13:04:47;;;;;;;2.45;1.58;;;;;;;37.48;24.82;99929.53;5073678;28;20060;-64
2022/08/25 13:07:26;;;;;;;2.22;1.30;;;;;;;37.00;24.77;99929.94;5073594;28;20124;-63
2022/08/25 13:10:10;;;;;;;2.70;1.80;;;;;;;37.83;24.42;99931.53;5073174;28;20068;-63
2022/08/25 13:12:47;;;;;;;2.05;1.50;;;;;;;37.99;23.80;99923.13;5073501;28;20051;-63
2022/08/25 13:15:27;;;;;;;;;;;;;;;37.33;24.12;99915.66;5072495;28;20037;-63
2022/08/25 13:17:52;;;;;;;1.83;1.55;;;;;;;38.31;23.52;99917.44;5073523;28;19916;-62
2022/08/25 13:20:28;;;;;;;2.03;1.70;;;;;;;38.09;23.10;99918.97;5073086;28;20063;-63
2022/08/25 13:22:58;;;;;;;2.88;2.33;;;;;;;37.96;22.64;99910.78;5073457;28;20044;-63
2022/08/25 13:25:26;;;;;;;1.92;1.50;;;;;;;38.28;22.75;99897.53;5073213;28;20028;-63
2022/08/25 13:27:55;;;;;;;1.95;1.35;;;;;;;38.12;23.47;99901.53;5073231;28;20067;-63
2022/08/25 13:30:30;;;;;;;2.53;1.60;;;;;;;38.50;22.83;99907.09;5071808;28;20492;-63
2022/08/25 13:32:56;;;;;;;2.83;1.33;;;;;;;37.98;22.85;99905.66;5073041;28;20110;-64
2022/08/25 13:35:26;;;;;;;;;;;;;;;38.43;22.57;99897.81;5073373;28;20119;-63
2022/08/25 13:37:52;;;;;;;2.10;1.58;;;;;;;37.81;22.66;99894.16;5071971;28;19923;-64
2022/08/25 13:40:18;;;;;;;1.52;1.30;;;;;;;38.24;23.14;99881.94;5072610;28;20040;-64
2022/08/25 13:42:49;;;;;;;2.20;1.60;;;;;;;38.27;23.56;99879.22;5072909;28;20032;-63
2022/08/25 13:45:17;;;;;;;1.80;1.50;;;;;;;37.62;23.57;99881.00;5072955;28;20036;-63
2022/08/25 13:47:44;;;;;;;2.28;1.75;;;;;;;37.18;24.64;99882.00;5071408;28;20094;-63
2022/08/25 13:50:17;;;;;;;2.03;1.50;;;;;;;37.29;24.64;99881.44;5072486;28;20123;-64
2022/08/25 13:52:47;;;;;;;2.13;1.67;;;;;;;37.06;24.69;99876.56;5072481;28;20159;-64
2022/08/25 13:55:21;;;;;;;3.00;1.60;;;;;;;36.38;26.31;99876.75;5072458;28;20037;-64
2022/08/25 13:57:46;;;;;;;2.20;1.67;;;;;;;35.66;26.03;99864.78;5072524;28;20474;-64
2022/08/25 14:00:23;;;;;;;2.07;1.60;;;;;;;35.80;26.18;99873.50;5072337;28;20085;-64
2022/08/25 14:02:51;;;;;;;2.17;1.65;;;;;;;35.08;26.93;99865.78;5072404;28;20040;-64
2022/08/25 14:05:44;;;;;;;2.00;1.60;;;;;;;34.55;28.45;99858.44;5072279;28;20044;-64
2022/08/25 14:08:33;;;;;;;2.30;1.70;;;;;;;34.54;28.30;99862.34;5072499;28;20086;-64
2022/08/25 14:11:10;;;;;;;2.45;1.63;;;;;;;34.43;28.23;99855.63;5072014;28;20498;-64
2022/08/25 14:13:36;;;;;;;2.05;1.75;;;;;;;33.81;28.75;99853.75;5072614;28;20390;-64
2022/08/25 14:16:14;;;;;;;1.92;1.55;;;;;;;33.80;29.14;99854.91;5070785;28;20115;-63
2022/08/25 14:18:53;;;;;;;3.13;1.77;;;;;;;33.06;30.04;99851.66;5072228;28;20052;-64
2022/08/25 14:21:23;;;;;;;2.30;1.63;;;;;;;33.21;30.07;99845.56;5070872;28;20087;-64
2022/08/25 14:23:49;;;;;;;2.72;1.73;;;;;;;33.15;29.66;99846.88;5072183;28;20131;-64
2022/08/25 14:26:14;;;;;;;1.83;1.30;;;;;;;32.94;30.23;99846.84;5072144;28;20108;-64
2022/08/25 14:28:40;;;;;;;2.10;1.70;;;;;;;33.02;30.40;99836.91;5072102;28;20048;-64
2022/08/25 14:31:08;;;;;;;1.97;1.47;;;;;;;32.71;30.14;99836.38;5071759;28;20111;-64
2022/08/25 14:33:40;;;;;;;2.13;1.50;;;;;;;32.83;30.74;99842.81;5072089;28;20091;-64
2022/08/25 14:36:06;;;;;;;2.15;1.92;;;;;;;32.76;30.33;99844.47;5071875;28;20029;-63
2022/08/25 14:38:32;;;;;;;2.33;1.90;;;;;;;32.78;30.62;99836.66;5071823;28;20043;-63
2022/08/25 14:40:59;;;;;;;2.03;1.55;;;;;;;32.66;30.04;99842.88;5071475;28;20043;-63
2022/08/25 14:43:24;;;;;;;2.13;1.53;;;;;;;32.37;31.34;99832.59;5071934;28;20032;-63
2022/08/25 14:45:50;;;;;;;2.97;1.60;;;;;;;32.47;31.06;99832.22;5071787;28;20493;-64
2022/08/25 14:48:40;;;;;;;3.50;1.67;;;;;;;32.51;31.11;99827.69;5071779;28;20040;-64
2022/08/25 14:51:07;;;;;;;1.80;1.50;;;;;;;32.49;30.95;99827.22;5063984;28;20044;-63
2022/08/25 14:53:32;;;;;;;2.03;1.60;;;;;;;32.47;31.06;99837.75;5071815;28;20033;-64
2022/08/25 14:55:58;;;;;;;2.20;1.60;;;;;;;32.36;31.01;99829.03;5071739;28;20547;-62
2022/08/25 14:58:23;;;;;;;1.90;1.57;;;;;;;32.38;31.41;99823.19;5071701;28;20489;-63
2022/08/25 15:00:49;;;;;;;1.70;1.50;;;;;;;32.33;31.09;99826.94;5071430;28;20032;-64
2022/08/25 15:03:28;;;;;;;3.60;1.70;;;;;;;32.42;30.79;99828.88;5071532;28;20122;-63
2022/08/25 15:05:54;;;;;;;2.78;1.80;;;;;;;32.16;30.73;99815.94;5071442;28;20044;-63
2022/08/25 15:11:04;;;;;;;2.20;1.50;;;;;;;32.01;31.75;99802.66;5071334;28;20064;-63
2022/08/25 15:13:29;;;;;;;2.95;1.55;;;;;;;31.84;31.20;99806.25;5071785;28;20480;-64
2022/08/25 15:15:54;;;;;;;2.00;1.80;;;;;;;31.95;31.58;99810.31;5071272;28;20409;-63
2022/08/25 15:18:20;;;;;;;2.17;1.55;;;;;;;31.99;31.45;99800.25;5071483;28;20123;-63
2022/08/25 15:20:47;;;;;;;4.80;3.45;;;;;;;31.96;31.28;99795.41;5071083;28;20071;-63
2022/08/25 15:23:12;;;;;;;3.40;2.45;;;;;;;31.98;31.68;99795.06;5071173;28;20036;-63
2022/08/25 15:25:46;;;;;;;2.83;1.83;;;;;;;31.84;31.10;99792.50;5071468;28;20090;-63
2022/08/25 15:28:12;;;;;;;2.42;1.83;;;;;;;31.86;31.27;99796.53;5071482;28;20474;-63
2022/08/25 15:30:38;;;;;;;3.58;2.20;;;;;;;31.87;31.58;99791.84;5071013;28;20039;-64
2022/08/25 15:33:03;;;;;;;2.28;1.80;;;;;;;31.92;31.98;99799.13;5070105;28;20454;-64
2022/08/25 15:35:29;;;;;;;2.83;1.73;;;;;;;31.90;31.95;99793.16;5071102;28;20440;-64
2022/08/25 15:37:55;;;;;;;2.80;1.90;;;;;;;31.87;31.78;99791.84;5071208;28;20044;-64
2022/08/25 15:40:20;;;;;;;2.60;1.90;;;;;;;31.77;31.43;99789.41;5070975;28;20138;-64
2022/08/25 15:42:45;;;;;;;2.20;1.60;;;;;;;31.71;31.98;99782.44;5071271;28;20486;-64
2022/08/25 15:45:11;;;;;;;2.05;1.60;;;;;;;31.79;32.00;99784.41;5071202;28;20413;-64
2022/08/25 15:47:37;;;;;;;2.80;1.88;;;;;;;31.75;31.54;99778.69;5071167;28;20040;-64
2022/08/25 15:50:13;;;;;;;2.00;1.60;;;;;;;31.71;31.82;99786.00;5071042;28;20131;-64
2022/08/25 15:52:39;;;;;;;1.92;1.63;;;;;;;31.70;31.79;99781.63;5071162;28;20123;-64
2022/08/25 15:55:05;;;;;;;2.13;1.70;;;;;;;31.60;32.14;99780.00;5070986;28;20051;-64
2022/08/25 15:57:31;;;;;;;2.70;1.67;;;;;;;31.55;32.14;99779.34;5071047;28;20301;-64
2022/08/25 15:59:57;;;;;;;2.20;1.80;;;;;;;31.57;32.01;99777.09;5070723;28;20036;-64
2022/08/25 16:02:22;;;;;;;2.13;1.42;;;;;;;31.53;31.56;99771.44;5073700;28;20398;-64
2022/08/25 16:04:50;;;;;;;2.20;1.80;;;;;;;31.59;31.09;99770.13;5074749;28;20098;-64
2022/08/25 16:07:16;;;;;;;2.22;1.83;;;;;;;31.55;31.13;99771.09;5074821;28;20044;-63
2022/08/25 16:09:41;;;;;;;2.57;1.90;;;;;;;31.54;31.56;99777.75;5073771;28;20120;-63
2022/08/25 16:12:07;;;;;;;2.30;1.70;;;;;;;31.53;31.05;99774.19;5074640;28;20094;-63
2022/08/25 16:14:32;;;;;;;2.77;1.67;;;;;;;31.42;31.43;99769.31;5074445;28;20037;-63
2022/08/25 16:34:10;;;;;;;1.70;1.35;;;;;;;31.13;31.23;99768.00;5129992;27;20387;-62
2022/08/25 16:36:37;;;;;;;2.47;1.70;;;;;;;31.10;31.60;99770.56;5130342;27;20144;-62
2022/08/25 16:39:02;;;;;;;2.25;1.40;;;;;;;31.11;31.59;99766.69;5129784;27;20059;-61
2022/08/25 16:41:32;;;;;;;1.98;1.60;;;;;;;31.06;32.46;99768.47;5129893;27;20534;-54
2022/08/25 16:44:00;;;;;;;2.10;1.60;;;;;;;31.05;33.36;99766.03;5129983;27;20106;-49
2022/08/25 16:46:26;;;;;;;1.95;1.60;;;;;;;30.98;32.98;99763.75;5129719;27;20027;-62